Time;durP1;ratioP1;P1;durP2;ratioP2;P2;SDS_P1;SDS_P2;PMS_P1;PMS_P2;Temp;Humidity;BMP_temperature;BMP_pressure;BME280_temperature;BME280_humidity;BME280_pressure;Samples;Min_cycle;Max_cycle;Signal;HPM_P1;HPM_P2
2021/04/29 00:03:28;;;;;;;95.85;33.58;;;6.70;99.90;;;;;;10110579;28;20922;-66
2021/04/29 00:08:32;;;;;;;89.97;32.88;;;6.90;99.90;;;;;;10143929;28;20703;-66
2021/04/29 00:13:33;;;;;;;;;;;7.00;99.90;;;;;;10154206;28;20121;-66
2021/04/29 00:18:34;;;;;;;97.45;35.80;;;7.30;99.90;;;;;;10144649;28;19998;-65
2021/04/29 00:23:36;;;;;;;100.32;33.85;;;7.40;99.90;;;;;;10111304;28;21140;-65
2021/04/29 00:28:38;;;;;;;97.90;34.00;;;7.20;99.90;;;;;;10111114;28;20058;-65
2021/04/29 00:33:39;;;;;;;88.70;32.03;;;7.10;99.90;;;;;;10112337;28;20186;-65
2021/04/29 00:38:41;;;;;;;115.18;36.42;;;7.60;99.90;;;;;;10114489;28;20248;-65
2021/04/29 00:43:43;;;;;;;105.73;34.33;;;7.40;99.90;;;;;;10144914;28;21389;-65
2021/04/29 00:48:45;;;;;;;108.13;34.05;;;7.50;99.90;;;;;;10115239;28;20055;-65
2021/04/29 00:53:49;;;;;;;115.68;33.05;;;7.60;99.90;;;;;;10111957;28;20051;-65
2021/04/29 00:58:52;;;;;;;102.07;29.73;;;7.40;99.90;;;;;;10109157;28;20053;-64
2021/04/29 01:03:57;;;;;;;103.15;30.55;;;7.60;99.90;;;;;;10112317;28;20740;-65
2021/04/29 01:09:03;;;;;;;92.50;30.13;;;7.70;99.90;;;;;;10104229;28;20476;-65
2021/04/29 01:14:05;;;;;;;106.65;29.40;;;7.70;99.90;;;;;;10111650;28;20170;-65
2021/04/29 01:19:16;;;;;;;106.27;28.40;;;7.70;99.90;;;;;;10111731;28;20093;-65
2021/04/29 01:24:23;;;;;;;96.68;26.88;;;7.30;99.90;;;;;;10113776;28;20133;-65
2021/04/29 01:29:29;;;;;;;94.82;28.65;;;7.70;99.90;;;;;;10110771;28;20066;-66
2021/04/29 01:34:34;;;;;;;106.63;28.63;;;7.60;99.90;;;;;;10112708;28;21295;-66
2021/04/29 01:39:37;;;;;;;134.15;30.15;;;7.60;99.90;;;;;;10108430;28;21573;-66
2021/04/29 01:44:40;;;;;;;123.20;30.00;;;7.50;99.90;;;;;;10111973;28;21373;-67
2021/04/29 01:49:42;;;;;;;128.15;31.83;;;7.50;99.90;;;;;;10112132;28;20055;-67
2021/04/29 01:54:43;;;;;;;138.48;31.20;;;7.50;99.90;;;;;;10108492;28;20051;-66
2021/04/29 01:59:46;;;;;;;131.18;32.83;;;4.00;99.90;;;;;;10110444;28;20070;-66
2021/04/29 02:04:47;;;;;;;148.90;32.38;;;7.50;99.90;;;;;;10113367;28;20795;-67
2021/04/29 02:09:49;;;;;;;155.45;35.53;;;7.50;99.90;;;;;;10108999;28;20050;-67
2021/04/29 02:14:56;;;;;;;160.40;35.17;;;7.50;99.90;;;;;;10097660;28;20047;-67
2021/04/29 02:19:58;;;;;;;163.13;35.20;;;7.50;99.90;;;;;;10108537;28;20097;-67
2021/04/29 02:25:01;;;;;;;143.87;32.77;;;7.50;99.90;;;;;;10119317;28;20519;-67
2021/04/29 02:30:05;;;;;;;133.20;32.30;;;8.40;99.90;;;;;;10117392;28;20115;-67
2021/04/29 02:35:10;;;;;;;152.48;31.27;;;7.40;99.90;;;;;;10116012;28;20125;-67
2021/04/29 02:40:13;;;;;;;159.93;34.88;;;7.40;99.90;;;;;;10118201;28;21833;-67
2021/04/29 02:45:17;;;;;;;183.95;33.22;;;7.40;99.90;;;;;;10117117;28;20214;-67
2021/04/29 02:50:20;;;;;;;0.20;0.20;;;7.40;99.90;;;;;;10114735;28;20062;-67
2021/04/29 02:55:24;;;;;;;1.27;1.08;;;7.30;99.90;;;;;;10117492;28;21355;-67
2021/04/29 03:00:27;;;;;;;0.10;0.10;;;7.30;99.90;;;;;;10116106;28;20188;-67
2021/04/29 03:05:29;;;;;;;141.88;28.60;;;7.20;99.90;;;;;;10116807;28;20512;-68
2021/04/29 03:10:30;;;;;;;163.95;33.50;;;7.20;99.90;;;;;;10116218;28;21357;-66
2021/04/29 03:15:32;;;;;;;1.60;1.52;;;7.20;99.90;;;;;;10118178;28;20794;-67
2021/04/29 03:20:34;;;;;;;126.40;30.07;;;7.10;99.90;;;;;;10115265;28;21135;-67
2021/04/29 03:25:36;;;;;;;164.52;33.13;;;6.90;99.90;;;;;;10113479;28;20078;-65
2021/04/29 03:30:38;;;;;;;176.23;34.47;;;7.10;99.90;;;;;;10114565;28;21424;-67
2021/04/29 03:35:39;;;;;;;170.37;38.27;;;8.40;99.90;;;;;;10116612;28;21366;-66
2021/04/29 03:40:41;;;;;;;183.05;38.17;;;7.30;99.90;;;;;;10113069;28;20146;-67
2021/04/29 03:45:43;;;;;;;181.20;36.90;;;7.20;99.90;;;;;;10113290;28;20911;-68
2021/04/29 03:50:44;;;;;;;177.90;33.87;;;7.20;99.90;;;;;;10111463;28;20086;-67
2021/04/29 03:55:46;;;;;;;175.55;36.10;;;9.60;99.90;;;;;;10111703;28;20047;-67
2021/04/29 04:00:48;;;;;;;190.35;37.33;;;7.20;99.90;;;;;;10114027;28;20489;-67
2021/04/29 04:05:49;;;;;;;190.55;35.85;;;7.20;99.90;;;;;;10117857;28;20173;-66
2021/04/29 04:10:51;;;;;;;190.43;37.42;;;7.10;99.90;;;;;;10117132;28;21621;-66
2021/04/29 04:15:53;;;;;;;194.50;42.47;;;7.10;99.90;;;;;;10113735;28;20071;-66
2021/04/29 04:20:54;;;;;;;192.02;47.22;;;7.20;99.90;;;;;;10114844;28;20051;-66
2021/04/29 04:25:56;;;;;;;205.85;43.60;;;7.40;99.90;;;;;;10113560;28;20284;-66
2021/04/29 04:30:58;;;;;;;226.73;46.45;;;6.90;99.90;;;;;;10113693;28;21736;-65
2021/04/29 04:35:59;;;;;;;225.52;46.83;;;6.60;99.90;;;;;;10116819;28;20055;-66
2021/04/29 04:41:00;;;;;;;198.30;43.25;;;10.30;99.90;;;;;;10114284;28;20198;-66
2021/04/29 04:46:03;;;;;;;193.48;47.53;;;6.80;99.90;;;;;;10111622;28;20050;-67
2021/04/29 04:51:05;;;;;;;179.40;40.97;;;6.50;99.90;;;;;;10115475;28;20086;-65
2021/04/29 04:56:06;;;;;;;177.77;43.10;;;6.90;99.90;;;;;;10109034;28;20806;-65
2021/04/29 05:01:08;;;;;;;163.20;43.30;;;6.40;99.90;;;;;;10112714;28;20062;-65
2021/04/29 05:06:11;;;;;;;179.03;42.63;;;6.80;99.90;;;;;;10112209;28;20043;-64
2021/04/29 05:11:12;;;;;;;208.30;47.47;;;6.70;99.90;;;;;;10119227;28;20097;-64
2021/04/29 05:16:14;;;;;;;192.68;47.45;;;6.90;99.90;;;;;;10113804;28;20420;-64
2021/04/29 05:21:16;;;;;;;190.07;46.50;;;7.10;99.90;;;;;;10118224;28;20145;-63
2021/04/29 05:26:17;;;;;;;196.25;44.08;;;6.80;99.90;;;;;;10114851;28;20502;-64
2021/04/29 05:31:19;;;;;;;184.13;42.35;;;7.10;99.90;;;;;;10115392;28;20499;-63
2021/04/29 05:36:21;;;;;;;187.80;43.00;;;7.00;99.90;;;;;;10115393;28;20759;-63
2021/04/29 05:41:22;;;;;;;166.50;45.45;;;7.00;99.90;;;;;;10115637;28;21010;-63
2021/04/29 05:46:24;;;;;;;176.52;46.85;;;6.90;99.90;;;;;;10116029;28;20059;-64
2021/04/29 05:51:28;;;;;;;184.97;48.50;;;7.10;99.90;;;;;;10119168;28;20510;-64
2021/04/29 05:56:29;;;;;;;;;;;6.80;99.90;;;;;;10123293;28;20059;-64
2021/04/29 06:01:31;;;;;;;152.65;45.65;;;6.90;99.90;;;;;;10116929;28;19980;-64
2021/04/29 06:06:32;;;;;;;175.27;47.10;;;6.60;99.90;;;;;;10119255;28;21678;-65
2021/04/29 06:11:34;;;;;;;140.63;42.30;;;6.80;99.90;;;;;;10121104;28;20698;-64
2021/04/29 06:16:36;;;;;;;121.68;39.17;;;6.80;99.90;;;;;;10120714;28;20137;-64
2021/04/29 06:21:37;;;;;;;152.30;43.67;;;6.60;99.90;;;;;;10119312;28;20074;-64
2021/04/29 06:26:40;;;;;;;132.23;41.95;;;6.60;99.90;;;;;;10117436;28;20051;-64
2021/04/29 06:31:44;;;;;;;125.07;39.13;;;6.60;99.90;;;;;;10122090;28;21374;-64
2021/04/29 06:36:46;;;;;;;124.53;37.03;;;8.40;99.90;;;;;;10120621;28;21155;-64
2021/04/29 06:41:47;;;;;;;120.38;37.58;;;6.60;99.90;;;;;;10119160;28;20797;-63
2021/04/29 06:46:50;;;;;;;122.22;37.22;;;6.50;99.90;;;;;;10123682;28;21198;-63
2021/04/29 06:51:51;;;;;;;110.83;37.33;;;6.40;99.90;;;;;;10118919;28;20051;-63
2021/04/29 06:56:53;;;;;;;111.78;36.72;;;6.40;99.90;;;;;;10120204;28;20090;-64
2021/04/29 07:01:55;;;;;;;115.13;36.33;;;6.40;99.90;;;;;;10119143;28;20055;-64
2021/04/29 07:06:56;;;;;;;85.93;31.30;;;6.30;99.90;;;;;;10114555;28;20050;-64
2021/04/29 07:11:58;;;;;;;85.97;30.55;;;6.30;99.90;;;;;;10119009;28;20059;-64
2021/04/29 07:17:00;;;;;;;93.20;33.88;;;6.20;99.90;;;;;;10116493;28;21135;-64
2021/04/29 07:22:01;;;;;;;83.93;32.60;;;6.20;99.90;;;;;;10116827;28;20106;-64
2021/04/29 07:27:03;;;;;;;87.13;30.17;;;6.10;99.90;;;;;;10121420;28;20221;-65
2021/04/29 07:32:06;;;;;;;90.93;30.80;;;6.10;99.90;;;;;;10127006;28;20142;-65
2021/04/29 07:37:08;;;;;;;107.25;32.10;;;6.10;99.90;;;;;;10123764;28;21868;-65
2021/04/29 07:42:09;;;;;;;105.07;34.25;;;6.20;99.90;;;;;;10125786;28;20067;-66
2021/04/29 07:47:12;;;;;;;129.13;37.60;;;6.10;99.90;;;;;;10122449;28;20742;-66
2021/04/29 07:52:13;;;;;;;111.53;39.27;;;6.00;99.90;;;;;;10126863;28;20067;-66
2021/04/29 07:57:15;;;;;;;122.28;34.38;;;6.00;99.90;;;;;;10126642;28;22044;-66
2021/04/29 08:02:18;;;;;;;121.60;35.20;;;6.00;99.90;;;;;;10126014;28;20149;-65
2021/04/29 08:07:19;;;;;;;106.57;31.73;;;6.10;99.90;;;;;;10125848;28;21753;-65
2021/04/29 08:12:20;;;;;;;118.18;37.25;;;5.90;99.90;;;;;;10123968;28;20061;-65
2021/04/29 08:17:23;;;;;;;146.60;36.25;;;5.90;99.90;;;;;;10121964;28;20599;-66
2021/04/29 08:22:26;;;;;;;133.53;36.97;;;5.90;99.90;;;;;;10125670;28;20097;-66
2021/04/29 08:27:28;;;;;;;121.88;35.63;;;6.00;99.90;;;;;;10120190;28;20054;-66
2021/04/29 08:32:32;;;;;;;148.68;37.90;;;6.00;99.90;;;;;;10126456;28;20845;-66
2021/04/29 08:37:34;;;;;;;120.20;35.15;;;6.10;99.90;;;;;;10120976;28;20051;-66
2021/04/29 08:42:36;;;;;;;149.00;37.00;;;6.20;99.90;;;;;;10122782;28;21744;-65
2021/04/29 08:47:38;;;;;;;138.45;35.38;;;6.10;99.90;;;;;;10122429;28;20141;-67
2021/04/29 08:52:40;;;;;;;130.88;34.42;;;6.30;99.90;;;;;;10124295;28;20059;-63
2021/04/29 08:57:43;;;;;;;143.32;34.00;;;6.20;99.90;;;;;;10120508;28;20098;-65
2021/04/29 09:02:45;;;;;;;143.70;31.98;;;6.10;99.90;;;;;;10125303;28;20054;-65
2021/04/29 09:07:54;;;;;;;0.40;0.40;;;6.10;99.90;;;;;;10122608;28;20193;-65
2021/04/29 09:12:56;;;;;;;0.20;0.20;;;6.10;99.90;;;;;;10123473;28;20082;-65
2021/04/29 09:18:09;;;;;;;0.50;0.50;;;6.60;99.90;;;;;;10124426;28;20048;-65
2021/04/29 09:23:17;;;;;;;0.20;0.20;;;6.40;99.90;;;;;;10124017;28;20058;-64
2021/04/29 09:28:19;;;;;;;0.32;0.32;;;6.30;99.90;;;;;;10127215;28;20173;-64
2021/04/29 09:33:30;;;;;;;0.40;0.40;;;6.20;99.90;;;;;;10128712;28;20822;-65
2021/04/29 09:38:34;;;;;;;0.10;0.10;;;6.10;99.90;;;;;;10129183;28;20151;-65
2021/04/29 09:43:35;;;;;;;0.20;0.20;;;6.00;99.90;;;;;;10128954;28;20058;-64
2021/04/29 09:48:39;;;;;;;0.20;0.20;;;5.90;99.90;;;;;;10133133;28;20682;-64
2021/04/29 09:53:42;;;;;;;0.20;0.20;;;5.90;99.90;;;;;;10130889;28;20215;-65
2021/04/29 09:58:48;;;;;;;0.20;0.20;;;5.90;99.90;;;;;;10130129;28;20293;-66
2021/04/29 10:03:50;;;;;;;0.20;0.20;;;5.60;99.90;;;;;;10127659;28;20062;-66
2021/04/29 10:08:52;;;;;;;73.45;21.25;;;5.60;99.90;;;;;;10130436;28;20227;-66
2021/04/29 10:13:55;;;;;;;82.75;22.88;;;5.90;99.90;;;;;;10131450;28;20476;-66
2021/04/29 10:18:57;;;;;;;116.05;27.75;;;5.80;99.90;;;;;;10132381;28;20121;-64
2021/04/29 10:23:59;;;;;;;94.90;24.57;;;5.90;99.90;;;;;;10130959;28;20086;-65
2021/04/29 10:29:03;;;;;;;87.72;21.60;;;6.10;99.90;;;;;;10134329;28;20054;-66
2021/04/29 10:34:16;;;;;;;104.32;26.90;;;6.20;99.90;;;;;;10122762;28;21384;-66
2021/04/29 10:39:18;;;;;;;;;;;6.50;99.90;;;;;;10123342;28;20081;-66
2021/04/29 10:44:20;;;;;;;78.43;21.00;;;6.70;99.90;;;;;;10124763;28;19977;-66
2021/04/29 10:49:30;;;;;;;62.22;17.52;;;6.90;99.90;;;;;;10131921;28;20055;-66
2021/04/29 10:54:31;;;;;;;87.38;26.40;;;6.80;99.90;;;;;;10126191;28;20055;-66
2021/04/29 10:59:40;;;;;;;75.30;18.77;;;6.90;99.90;;;;;;10117557;28;20484;-68
2021/04/29 11:04:44;;;;;;;68.65;20.92;;;7.10;99.90;;;;;;10116970;28;20074;-67
2021/04/29 11:09:57;;;;;;;61.70;17.60;;;6.90;99.90;;;;;;10115820;28;20848;-66
2021/04/29 11:14:59;;;;;;;68.88;19.15;;;7.20;99.90;;;;;;10113324;28;20062;-64
2021/04/29 11:20:01;;;;;;;56.95;17.20;;;7.60;99.90;;;;;;10116421;28;20082;-64
2021/04/29 11:25:07;;;;;;;51.37;19.37;;;8.30;99.90;;;;;;10115145;28;20868;-64
2021/04/29 11:30:12;;;;;;;39.80;11.13;;;8.80;99.90;;;;;;10116178;28;20055;-64
2021/04/29 11:35:22;;;;;;;38.38;12.23;;;9.10;99.90;;;;;;10119888;28;20055;-64
2021/04/29 11:40:26;;;;;;;43.17;14.35;;;9.40;99.90;;;;;;10120449;28;20058;-64
2021/04/29 11:45:30;;;;;;;40.75;13.95;;;9.10;99.90;;;;;;10117496;28;20453;-64
2021/04/29 11:50:34;;;;;;;38.80;13.32;;;8.80;99.90;;;;;;10119590;28;20113;-64
2021/04/29 11:55:37;;;;;;;39.63;12.90;;;8.30;99.90;;;;;;10120463;28;21513;-63
2021/04/29 12:00:41;;;;;;;42.95;15.30;;;8.00;99.90;;;;;;10122989;28;20049;-64
2021/04/29 12:05:45;;;;;;;41.70;15.43;;;7.70;99.90;;;;;;10120621;28;20958;-63
2021/04/29 12:10:49;;;;;;;48.53;14.68;;;7.40;99.90;;;;;;10118680;28;20061;-63
2021/04/29 12:15:51;;;;;;;44.95;19.08;;;7.40;99.90;;;;;;10120079;28;20049;-65
2021/04/29 12:20:54;;;;;;;47.60;17.33;;;7.70;99.90;;;;;;10125043;28;20051;-65
2021/04/29 12:25:55;;;;;;;;;;;8.60;99.90;;;;;;10122651;28;20054;-66
2021/04/29 12:30:58;;;;;;;22.95;11.88;;;8.90;99.90;;;;;;10121245;28;21991;-64
2021/04/29 12:36:08;;;;;;;18.52;9.38;;;11.30;99.90;;;;;;10125146;28;20692;-63
2021/04/29 12:41:10;;;;;;;12.55;7.65;;;12.30;99.90;;;;;;10123188;28;20062;-63
2021/04/29 12:46:12;;;;;;;11.48;6.30;;;13.40;99.50;;;;;;10121314;28;21857;-67
2021/04/29 12:51:16;;;;;;;12.82;6.10;;;13.40;93.00;;;;;;10116332;28;20483;-65
2021/04/29 12:56:23;;;;;;;17.98;6.28;;;12.40;94.10;;;;;;10114996;28;21758;-63
2021/04/29 13:01:25;;;;;;;11.65;5.47;;;11.90;96.40;;;;;;10117064;28;20054;-63
2021/04/29 13:06:27;;;;;;;12.27;6.32;;;12.80;95.80;;;;;;10111236;28;20620;-64
2021/04/29 13:11:31;;;;;;;27.02;6.05;;;12.30;94.20;;;;;;10118122;28;20649;-63
2021/04/29 13:16:33;;;;;;;16.73;4.88;;;11.80;95.10;;;;;;10113255;28;20859;-63
2021/04/29 13:21:36;;;;;;;16.35;5.18;;;12.40;94.50;;;;;;10116045;28;20054;-64
2021/04/29 13:26:37;;;;;;;14.90;4.72;;;13.00;92.30;;;;;;10116912;28;21235;-64
2021/04/29 13:31:39;;;;;;;15.82;4.65;;;13.30;92.30;;;;;;10120199;28;20050;-62
2021/04/29 13:36:41;;;;;;;24.35;4.45;;;12.80;90.80;;;;;;10115102;28;20079;-62
2021/04/29 13:41:44;;;;;;;12.23;4.50;;;12.40;92.50;;;;;;10120785;28;20066;-63
2021/04/29 13:46:45;;;;;;;;;;;12.50;90.70;;;;;;10118901;28;20774;-64
2021/04/29 13:51:50;;;;;;;11.60;4.50;;;12.40;89.60;;;;;;10121740;28;20374;-63
2021/04/29 13:56:52;;;;;;;20.17;4.25;;;12.50;89.80;;;;;;10116059;28;21591;-62
2021/04/29 14:01:53;;;;;;;14.15;5.60;;;12.70;90.60;;;;;;10112452;28;20093;-64
2021/04/29 14:06:55;;;;;;;16.10;4.22;;;12.70;89.40;;;;;;10117451;28;21444;-63
2021/04/29 14:11:56;;;;;;;16.83;4.60;;;12.60;90.40;;;;;;10123273;28;20073;-62
2021/04/29 14:16:58;;;;;;;14.13;3.42;;;12.80;89.40;;;;;;10122501;28;20518;-61
2021/04/29 14:22:00;;;;;;;13.35;5.57;;;12.70;87.70;;;;;;10124524;28;21741;-64
2021/04/29 14:27:02;;;;;;;8.60;3.47;;;12.70;89.40;;;;;;10121733;28;20051;-63
2021/04/29 14:32:03;;;;;;;12.70;4.85;;;12.90;89.00;;;;;;10121759;28;21687;-62
2021/04/29 14:37:05;;;;;;;21.33;4.40;;;12.80;85.10;;;;;;10120863;28;20085;-63
2021/04/29 14:42:07;;;;;;;12.15;4.10;;;12.60;88.50;;;;;;10120795;28;20054;-63
2021/04/29 14:47:08;;;;;;;14.75;3.67;;;12.60;87.70;;;;;;10120920;28;20074;-63
2021/04/29 14:52:11;;;;;;;9.25;2.90;;;12.50;86.50;;;;;;10123249;28;20063;-64
2021/04/29 14:57:13;;;;;;;;;;;12.30;87.60;;;;;;10127897;28;20082;-64
2021/04/29 15:02:14;;;;;;;10.82;3.35;;;12.00;85.20;;;;;;10125918;28;20012;-63
2021/04/29 15:07:17;;;;;;;6.15;3.58;;;12.90;86.50;;;;;;10123649;28;20401;-63
2021/04/29 15:12:18;;;;;;;11.13;3.83;;;12.20;85.70;;;;;;10121146;28;20059;-62
2021/04/29 15:17:20;;;;;;;9.57;3.30;;;12.20;84.70;;;;;;10122143;28;21762;-64
2021/04/29 15:22:22;;;;;;;22.60;3.80;;;12.10;84.70;;;;;;10128547;28;20058;-64
2021/04/29 15:27:24;;;;;;;8.18;3.17;;;11.90;84.50;;;;;;10124417;28;20082;-62
2021/04/29 15:32:25;;;;;;;11.77;3.63;;;11.70;86.10;;;;;;10128259;28;20058;-64
2021/04/29 15:37:28;;;;;;;7.97;3.20;;;11.80;86.80;;;;;;10127470;28;20482;-64
2021/04/29 15:42:29;;;;;;;8.73;3.38;;;10.10;84.10;;;;;;10119500;28;20093;-64
2021/04/29 15:47:31;;;;;;;11.60;3.40;;;11.60;85.20;;;;;;10122868;28;20561;-64
2021/04/29 15:52:34;;;;;;;14.98;3.88;;;11.40;85.00;;;;;;10122321;28;21540;-62
2021/04/29 15:57:36;;;;;;;11.57;3.30;;;11.20;85.40;;;;;;10116654;28;20858;-63
2021/04/29 16:02:38;;;;;;;8.95;3.42;;;11.20;86.90;;;;;;10120193;28;20090;-62
2021/04/29 16:07:40;;;;;;;15.43;3.95;;;11.00;86.00;;;;;;10120833;28;20691;-63
2021/04/29 16:12:42;;;;;;;9.27;3.17;;;10.90;87.10;;;;;;10115588;28;20076;-63
2021/04/29 16:17:43;;;;;;;9.73;3.13;;;10.80;87.60;;;;;;10117720;28;20055;-64
2021/04/29 16:22:46;;;;;;;8.82;3.28;;;10.70;88.30;;;;;;10119585;28;20059;-63
2021/04/29 16:27:47;;;;;;;13.73;3.40;;;10.60;89.40;;;;;;10121487;28;20058;-63
2021/04/29 16:32:50;;;;;;;11.00;3.10;;;10.60;88.40;;;;;;10118325;28;20145;-64
2021/04/29 16:37:52;;;;;;;9.83;3.77;;;10.70;88.60;;;;;;10118495;28;21516;-65
2021/04/29 16:42:55;;;;;;;12.82;3.58;;;10.60;87.80;;;;;;10118586;28;21404;-62
2021/04/29 16:47:56;;;;;;;14.18;3.58;;;10.70;89.20;;;;;;10116614;28;20051;-63
2021/04/29 16:52:59;;;;;;;10.23;3.53;;;11.10;87.60;;;;;;10119509;28;20089;-63
2021/04/29 16:58:00;;;;;;;8.43;3.67;;;10.90;87.00;;;;;;10123458;28;20069;-62
2021/04/29 17:03:01;;;;;;;16.88;3.55;;;10.70;87.60;;;;;;10114756;28;20918;-64
2021/04/29 17:08:06;;;;;;;14.60;3.33;;;10.50;89.00;;;;;;10116464;28;20295;-64
2021/04/29 17:13:07;;;;;;;10.85;3.50;;;10.30;89.90;;;;;;10118683;28;21536;-62
2021/04/29 17:18:09;;;;;;;17.77;3.65;;;10.40;89.80;;;;;;10133784;28;20074;-64
2021/04/29 17:23:12;;;;;;;14.70;4.28;;;10.20;89.60;;;;;;10133474;28;20055;-64
2021/04/29 17:28:15;;;;;;;10.52;3.72;;;9.80;90.40;;;;;;10129060;28;20510;-64
2021/04/29 17:33:17;;;;;;;14.85;4.53;;;9.80;91.20;;;;;;10133762;28;20538;-63
2021/04/29 17:38:22;;;;;;;10.80;4.18;;;9.80;91.00;;;;;;10134342;28;20428;-64
2021/04/29 17:43:24;;;;;;;14.60;5.38;;;9.70;91.10;;;;;;10129226;28;20059;-64
2021/04/29 17:48:26;;;;;;;8.65;4.47;;;9.60;91.30;;;;;;10156676;28;20054;-63
2021/04/29 17:53:35;;;;;;;18.45;5.88;;;9.30;91.40;;;;;;10161413;28;20058;-63
2021/04/29 17:58:48;;;;;;;14.65;5.50;;;9.00;95.40;;;;;;10168479;28;20748;-63
2021/04/29 18:03:51;;;;;;;15.55;5.57;;;8.40;93.80;;;;;;10161196;28;20707;-62
2021/04/29 18:08:59;;;;;;;18.40;6.80;;;8.40;94.00;;;;;;10150988;28;20059;-63
2021/04/29 18:14:01;;;;;;;26.73;7.68;;;8.10;98.20;;;;;;10153946;28;20062;-62
2021/04/29 18:19:03;;;;;;;13.80;7.25;;;7.80;98.20;;;;;;10151377;28;21755;-62
2021/04/29 18:24:08;;;;;;;16.27;7.80;;;7.90;95.80;;;;;;10169893;28;20162;-62
2021/04/29 18:29:10;;;;;;;19.48;8.38;;;7.80;96.50;;;;;;10146200;28;20051;-64
2021/04/29 18:34:12;;;;;;;20.27;7.63;;;7.70;97.10;;;;;;10175477;28;20111;-64
2021/04/29 18:39:20;;;;;;;16.42;7.72;;;7.60;97.80;;;;;;10157687;28;20630;-63
2021/04/29 18:44:23;;;;;;;19.80;8.27;;;7.40;98.20;;;;;;10147999;28;20082;-64
2021/04/29 18:49:25;;;;;;;25.73;8.70;;;7.30;98.80;;;;;;10148342;28;20066;-64
2021/04/29 18:54:31;;;;;;;17.88;7.90;;;7.30;99.30;;;;;;10160746;28;20149;-63
2021/04/29 18:59:36;;;;;;;17.52;7.93;;;7.30;99.80;;;;;;10151583;28;20065;-64
2021/04/29 19:04:39;;;;;;;25.40;9.38;;;7.30;99.90;;;;;;10145796;28;20396;-62
2021/04/29 19:09:42;;;;;;;18.43;7.80;;;7.40;99.90;;;;;;10133062;28;20499;-64
2021/04/29 19:14:43;;;;;;;;;;;7.60;99.90;;;;;;10135236;28;20166;-64
2021/04/29 19:19:45;;;;;;;15.50;7.63;;;7.90;99.90;;;;;;10129129;28;19969;-67
2021/04/29 19:24:49;;;;;;;28.50;8.60;;;7.70;99.90;;;;;;10133579;28;22376;-64
2021/04/29 19:29:51;;;;;;;21.15;7.85;;;7.80;99.90;;;;;;10125250;28;21428;-63
2021/04/29 19:34:52;;;;;;;23.05;8.60;;;7.80;99.90;;;;;;10126986;28;20132;-65
2021/04/29 19:39:55;;;;;;;18.95;8.32;;;7.90;99.90;;;;;;10128049;28;20125;-63
2021/04/29 19:44:59;;;;;;;20.75;8.18;;;7.60;99.90;;;;;;10132972;28;20055;-64
2021/04/29 19:50:00;;;;;;;22.92;7.78;;;7.20;99.90;;;;;;10135287;28;20063;-63
2021/04/29 19:55:05;;;;;;;23.63;8.38;;;7.60;99.90;;;;;;10139602;28;20783;-64
2021/04/29 20:00:10;;;;;;;29.98;9.82;;;7.30;99.90;;;;;;10135626;28;20047;-64
2021/04/29 20:05:12;;;;;;;23.27;8.00;;;7.20;99.90;;;;;;10136545;28;20782;-65
2021/04/29 20:10:15;;;;;;;21.98;9.75;;;7.10;99.90;;;;;;10129343;28;20059;-64
2021/04/29 20:15:18;;;;;;;22.08;8.77;;;7.10;99.90;;;;;;10132082;28;20061;-62
2021/04/29 20:20:21;;;;;;;29.42;9.05;;;7.20;99.90;;;;;;10128881;28;21974;-62
2021/04/29 20:25:25;;;;;;;28.00;9.23;;;7.30;99.90;;;;;;10129726;28;20054;-64
2021/04/29 20:30:29;;;;;;;20.98;8.68;;;7.30;99.90;;;;;;10139916;28;20149;-62
2021/04/29 20:35:31;;;;;;;20.50;8.88;;;7.20;99.90;;;;;;10146646;28;20652;-63
2021/04/29 20:40:34;;;;;;;31.88;8.77;;;7.30;99.90;;;;;;10117925;28;20193;-63
2021/04/29 20:45:35;;;;;;;21.88;8.70;;;7.30;99.90;;;;;;10106842;28;20062;-63
2021/04/29 20:50:37;;;;;;;25.65;7.75;;;7.40;99.90;;;;;;10105875;28;20054;-64
2021/04/29 20:55:39;;;;;;;25.15;8.30;;;7.50;99.90;;;;;;10110003;28;20082;-63
2021/04/29 21:00:41;;;;;;;22.60;8.37;;;7.40;99.90;;;;;;10118899;28;21179;-63
2021/04/29 21:05:42;;;;;;;21.02;7.43;;;7.30;99.90;;;;;;10112284;28;20140;-63
2021/04/29 21:10:45;;;;;;;19.25;7.60;;;7.30;99.90;;;;;;10116162;28;21132;-64
2021/04/29 21:15:46;;;;;;;32.77;8.37;;;6.80;99.90;;;;;;10116265;28;20059;-63
2021/04/29 21:20:48;;;;;;;19.88;7.88;;;7.30;99.90;;;;;;10113997;28;20784;-63
2021/04/29 21:25:50;;;;;;;34.63;7.90;;;7.10;99.90;;;;;;10115763;28;20666;-63
2021/04/29 21:30:52;;;;;;;16.98;7.15;;;7.00;99.90;;;;;;10117083;28;20459;-63
2021/04/29 21:35:53;;;;;;;17.67;7.55;;;7.30;99.90;;;;;;10113585;28;20066;-64
2021/04/29 21:40:56;;;;;;;20.77;6.85;;;7.40;99.90;;;;;;10111026;28;20047;-63
2021/04/29 21:45:57;;;;;;;21.20;7.27;;;4.60;99.90;;;;;;10092038;28;21424;-64
2021/04/29 21:50:59;;;;;;;27.77;6.78;;;7.50;99.90;;;;;;10111714;28;20094;-63
2021/04/29 21:56:01;;;;;;;30.40;7.80;;;7.60;99.90;;;;;;10112727;28;20543;-62
2021/04/29 22:01:03;;;;;;;29.33;7.77;;;7.90;99.90;;;;;;10115613;28;20047;-64
2021/04/29 22:06:06;;;;;;;24.83;6.68;;;7.70;99.90;;;;;;10112962;28;20201;-63
2021/04/29 22:11:08;;;;;;;28.58;7.82;;;7.80;99.90;;;;;;10115933;28;20086;-63
2021/04/29 22:16:10;;;;;;;23.38;7.05;;;7.80;99.90;;;;;;10118055;28;20463;-63
2021/04/29 22:21:11;;;;;;;16.00;6.30;;;7.80;99.90;;;;;;10113762;28;20073;-63
2021/04/29 22:26:15;;;;;;;37.90;7.15;;;7.80;99.90;;;;;;10109941;28;20366;-64
2021/04/29 22:31:16;;;;;;;23.45;6.10;;;7.80;99.90;;;;;;10115121;28;20129;-64
2021/04/29 22:36:17;;;;;;;43.72;7.35;;;7.80;99.90;;;;;;10118680;28;20107;-63
2021/04/29 22:41:21;;;;;;;17.88;5.97;;;7.70;99.90;;;;;;10119953;28;22130;-65
2021/04/29 22:46:30;;;;;;;23.65;6.10;;;7.60;99.90;;;;;;10121734;28;20058;-63
2021/04/29 22:51:31;;;;;;;17.52;5.45;;;7.20;99.90;;;;;;10121158;28;21307;-64
2021/04/29 22:56:33;;;;;;;22.55;4.97;;;7.50;99.90;;;;;;10119828;28;20048;-63
2021/04/29 23:01:35;;;;;;;20.13;5.50;;;7.30;99.90;;;;;;10120402;28;20046;-63
2021/04/29 23:06:36;;;;;;;17.60;5.88;;;7.20;99.90;;;;;;10115118;28;21640;-64
2021/04/29 23:11:39;;;;;;;17.45;5.72;;;7.10;99.90;;;;;;10116186;28;20047;-64
2021/04/29 23:16:40;;;;;;;25.70;6.00;;;7.10;99.90;;;;;;10111585;28;20062;-63
2021/04/29 23:21:41;;;;;;;15.68;6.18;;;7.10;99.90;;;;;;10107868;28;22562;-64
2021/04/29 23:26:44;;;;;;;25.05;7.35;;;7.00;99.90;;;;;;10110753;28;21278;-63
2021/04/29 23:31:45;;;;;;;13.43;6.50;;;6.60;99.90;;;;;;10116217;28;20791;-63
2021/04/29 23:36:47;;;;;;;25.30;5.47;;;6.50;99.90;;;;;;10114399;28;20625;-63
2021/04/29 23:41:49;;;;;;;23.92;6.90;;;7.20;99.90;;;;;;10114601;28;20051;-64
2021/04/29 23:46:50;;;;;;;13.97;4.57;;;7.20;99.90;;;;;;10109650;28;20054;-63
2021/04/29 23:51:52;;;;;;;13.60;4.82;;;7.30;99.90;;;;;;10112931;28;20649;-64
2021/04/29 23:56:54;;;;;;;13.73;4.13;;;7.30;99.90;;;;;;10116034;28;20058;-62
